Los Ojos, New Mexico
Current Conditions -  °F | °C
As of 3:35 AM on Monday 22 Dec 2014 (Local Time) from KPSO Reporting Station
Light Snow Light Snow  
Wind Chill: 31°   Ceiling: 3900
Heat Index: 31°   Visibility: 7mi
Dew Point: 31°   Wind: 0mph
Humidity: 100%   Direction: NA
Pressure: 29.87"   Gusts: NA
Location:  36.75°N, 106.56°W
Report Text: KPSO 221035Z AUTO 00000KT 7SM -SN SCT013 BKN039 OVC048 M01/M01 A2987 RMK AO2 T10061006
Loading
Personal Weather Stations






























Interactive Weather Map New forecast layout! Learn more

10-Day Weather Forecast

Advertisements
Track Severe Weather on mobile